ESNN/SDL METAR and TAF weather

Enter ICAO airport designator
Station Type Date Time Source
ESNN METAR 2019/06/26 17:50 UTC NOAA

ESNN 261750Z 25004KT CAVOK 18/11 Q1013


Station Type Date Time Source
ESNN Decoded METAR 2019/06/26 17:50 UTC NOAA

Sundsvall-Harnosand Flygplats, Sweden (ESNN) 62-32N 017-27E 10M
Jun 26, 2019 - 01:50 PM EDT / 2019.06.26 1750 UTC
Wind: from the WSW (250 degrees) at 5 MPH (4 KT):0
Visibility: greater than 7 mile(s):0
Temperature: 64 F (18 C)
Dew Point: 51 F (11 C)
Relative Humidity: 63%
Pressure (altimeter): 29.91 in. Hg (1013 hPa)
ob: ESNN 261750Z 25004KT CAVOK 18/11 Q1013
cycle: 18

Station Type Date Time Source
ESNN TAF 2016/05/29 09:33 UTC NOAA

TAF TAF ESNN 290830Z 2909/3018 07006KT 9999 SCT045
BECMG 2913/2915 14010KT

Example: see airport list